createdAt,value
2019-02-28T00:01:04.825Z,100440.89
2019-02-28T00:03:33.627Z,100442.50
2019-02-28T00:06:02.484Z,100438.73
2019-02-28T00:08:31.304Z,100436.81
2019-02-28T00:11:02.050Z,100441.72
2019-02-28T00:13:30.837Z,100443.91
2019-02-28T00:16:00.182Z,100444.45
2019-02-28T00:18:30.146Z,100450.72
2019-02-28T00:20:59.072Z,100449.64
2019-02-28T00:23:27.980Z,100441.48
2019-02-28T00:25:56.746Z,100433.36
2019-02-28T00:28:26.526Z,100422.77
2019-02-28T00:30:55.529Z,100422.22
2019-02-28T00:33:24.286Z,100427.39
2019-02-28T00:35:53.152Z,100421.16
2019-02-28T00:38:22.033Z,100427.42
2019-02-28T00:40:50.935Z,100424.16
2019-02-28T00:43:22.309Z,100424.44
2019-02-28T00:45:50.314Z,100420.65
2019-02-28T00:48:21.588Z,100414.66
2019-02-28T00:50:49.723Z,100416.03
2019-02-28T00:53:18.591Z,100408.72
2019-02-28T00:55:47.393Z,100402.73
2019-02-28T00:58:16.300Z,100403.28
2019-02-28T01:00:45.166Z,100403.56
2019-02-28T01:03:14.039Z,100398.16
2019-02-28T01:05:42.881Z,100403.02
2019-02-28T01:08:11.765Z,100399.23
2019-02-28T01:10:40.585Z,100395.44
2019-02-28T01:13:09.414Z,100389.48
2019-02-28T01:15:41.217Z,100385.66
2019-02-28T01:18:08.927Z,100382.16
2019-02-28T01:20:37.785Z,100370.23
2019-02-28T01:23:06.616Z,100375.36
2019-02-28T01:25:37.177Z,100375.38
2019-02-28T01:28:05.888Z,100371.30
2019-02-28T01:30:37.073Z,100373.20
2019-02-28T01:33:05.257Z,100369.12
2019-02-28T01:35:34.120Z,100367.50
2019-02-28T01:38:02.923Z,100368.33
2019-02-28T01:40:31.656Z,100367.77
2019-02-28T01:43:00.480Z,100366.69
2019-02-28T01:45:29.306Z,100365.87
2019-02-28T01:47:58.202Z,100356.12
2019-02-28T01:50:29.696Z,100358.30
2019-02-28T01:52:57.448Z,100356.65
2019-02-28T01:55:26.226Z,100352.05
2019-02-28T01:57:55.190Z,100348.55
2019-02-28T02:00:24.512Z,100347.44
2019-02-28T02:02:53.594Z,100350.70
2019-02-28T02:05:22.495Z,100349.63
2019-02-28T02:07:51.299Z,100349.91
2019-02-28T02:10:22.223Z,100346.66
2019-02-28T02:12:51.261Z,100337.68
2019-02-28T02:15:20.101Z,100337.70
2019-02-28T02:17:48.894Z,100332.82
2019-02-28T02:20:17.747Z,100335.55
2019-02-28T02:22:46.501Z,100328.77
2019-02-28T02:25:15.392Z,100322.78
2019-02-28T02:27:44.310Z,100323.06
2019-02-28T02:30:16.482Z,100323.08
2019-02-28T02:32:45.303Z,100320.91
2019-02-28T02:35:14.093Z,100319.27
2019-02-28T02:37:42.843Z,100319.55
2019-02-28T02:40:12.094Z,100313.05
2019-02-28T02:42:47.545Z,100309.80
2019-02-28T02:45:11.892Z,100304.63
2019-02-28T02:47:40.845Z,100303.01
2019-02-28T02:50:11.566Z,100306.81
2019-02-28T02:52:40.357Z,100298.41
2019-02-28T02:55:09.246Z,100295.98
2019-02-28T02:57:38.078Z,100288.64
2019-02-28T03:00:13.817Z,100287.56
2019-02-28T03:02:40.639Z,100285.41
2019-02-28T03:05:09.448Z,100287.03
2019-02-28T03:07:38.362Z,100281.89
2019-02-28T03:10:08.041Z,100282.14
2019-02-28T03:12:36.813Z,100276.45
2019-02-28T03:15:05.869Z,100273.22
2019-02-28T03:17:34.666Z,100272.41
2019-02-28T03:20:07.418Z,100275.39
2019-02-28T03:22:34.208Z,100263.99
2019-02-28T03:25:03.110Z,100269.96
2019-02-28T03:27:31.885Z,100268.88
2019-02-28T03:30:00.867Z,100267.27
2019-02-28T03:32:39.790Z,100258.57
2019-02-28T03:35:00.621Z,100266.70
2019-02-28T03:37:33.527Z,100264.81
2019-02-28T03:40:04.359Z,100268.08
2019-02-28T03:42:30.631Z,100270.52
2019-02-28T03:44:59.464Z,100265.08
2019-02-28T03:47:28.274Z,100260.75
2019-02-28T03:49:57.114Z,100258.58
2019-02-28T03:52:26.023Z,100252.90
2019-02-28T03:54:54.797Z,100261.03
2019-02-28T03:57:28.023Z,100259.11
2019-02-28T03:59:56.728Z,100253.13
2019-02-28T04:02:24.747Z,100242.57
2019-02-28T04:04:53.647Z,100243.11
2019-02-28T04:07:22.489Z,100242.04
2019-02-28T04:09:51.255Z,100236.35
2019-02-28T04:12:20.080Z,100236.90
2019-02-28T04:14:48.920Z,100230.13
2019-02-28T04:17:17.801Z,100238.50
2019-02-28T04:19:46.589Z,100237.97
2019-02-28T04:22:15.359Z,100236.89
2019-02-28T04:24:46.235Z,100237.98
2019-02-28T04:27:14.570Z,100236.63
2019-02-28T04:29:43.338Z,100239.59
2019-02-28T04:32:12.131Z,100231.19
2019-02-28T04:34:41.066Z,100227.95
2019-02-28T04:37:09.892Z,100224.16
2019-02-28T04:39:38.702Z,100223.63
2019-02-28T04:42:07.562Z,100223.90
2019-02-28T04:44:36.460Z,100220.09
2019-02-28T04:47:06.763Z,100221.98
2019-02-28T04:49:35.834Z,100216.84
2019-02-28T04:52:04.614Z,100220.37
2019-02-28T04:54:33.422Z,100217.67
2019-02-28T04:57:02.322Z,100216.31
2019-02-28T04:59:31.530Z,100213.06
2019-02-28T05:02:01.654Z,100215.50
2019-02-28T05:04:33.252Z,100216.58
2019-02-28T05:07:01.067Z,100211.42
2019-02-28T05:09:29.972Z,100203.56
2019-02-28T05:11:58.825Z,100208.70
2019-02-28T05:14:27.642Z,100204.13
2019-02-28T05:16:56.430Z,100205.75
2019-02-28T05:19:25.191Z,100210.08
2019-02-28T05:21:54.365Z,100211.43
2019-02-28T05:24:23.255Z,100210.61
2019-02-28T05:26:51.982Z,100212.51
2019-02-28T05:29:20.799Z,100211.70
2019-02-28T05:31:49.621Z,100210.89
2019-02-28T05:34:18.480Z,100211.43
2019-02-28T05:36:47.297Z,100207.37
2019-02-28T05:39:16.133Z,100205.48
2019-02-28T05:41:49.170Z,100201.41
2019-02-28T05:44:15.454Z,100191.64
2019-02-28T05:46:44.229Z,100187.59
2019-02-28T05:49:13.004Z,100186.78
2019-02-28T05:51:41.795Z,100186.25
2019-02-28T05:54:15.935Z,100198.14
2019-02-28T05:56:41.212Z,100205.73
2019-02-28T05:59:10.130Z,100206.83
2019-02-28T06:01:38.935Z,100214.69
2019-02-28T06:04:07.864Z,100209.55
2019-02-28T06:06:36.694Z,100208.70
2019-02-28T06:09:06.724Z,100208.44
2019-02-28T06:11:35.885Z,100204.39
2019-02-28T06:14:04.790Z,100198.16
2019-02-28T06:16:33.568Z,100199.50
2019-02-28T06:19:04.590Z,100205.46
2019-02-28T06:21:32.973Z,100204.66
2019-02-28T06:24:01.776Z,100198.70
2019-02-28T06:26:31.795Z,100202.22
2019-02-28T06:29:04.604Z,100201.69
2019-02-28T06:31:31.721Z,100195.70
2019-02-28T06:34:00.594Z,100206.84
2019-02-28T06:36:29.948Z,100203.84
2019-02-28T06:38:58.891Z,100202.22
2019-02-28T06:41:27.753Z,100203.30
2019-02-28T06:43:56.509Z,100201.95
2019-02-28T06:46:25.340Z,100207.08
2019-02-28T06:48:54.267Z,100197.89
2019-02-28T06:51:23.184Z,100200.05
2019-02-28T06:53:52.039Z,100205.76
2019-02-28T06:56:22.663Z,100201.70
2019-02-28T06:58:51.636Z,100196.00
2019-02-28T07:01:22.638Z,100199.52
2019-02-28T07:03:53.663Z,100198.16
2019-02-28T07:06:21.644Z,100204.13
2019-02-28T07:08:50.396Z,100203.31
2019-02-28T07:11:19.834Z,100207.63
2019-02-28T07:13:49.528Z,100203.86
2019-02-28T07:16:18.460Z,100201.40
2019-02-28T07:18:52.824Z,100213.87
2019-02-28T07:21:19.705Z,100212.48
2019-02-28T07:23:48.508Z,100211.14
2019-02-28T07:26:18.722Z,100211.95
2019-02-28T07:28:48.916Z,100216.03
2019-02-28T07:31:17.820Z,100214.42
2019-02-28T07:33:48.494Z,100218.19
2019-02-28T07:36:17.250Z,100220.91
2019-02-28T07:38:46.134Z,100218.17
2019-02-28T07:41:14.970Z,100221.69
2019-02-28T07:43:46.270Z,100220.33
2019-02-28T07:46:14.402Z,100213.81
2019-02-28T07:48:43.195Z,100217.59
2019-02-28T07:51:12.120Z,100213.84
2019-02-28T07:53:41.933Z,100219.30
2019-02-28T07:56:11.015Z,100211.42
2019-02-28T07:58:39.949Z,100208.95
2019-02-28T08:01:08.865Z,100214.03
2019-02-28T08:03:37.687Z,100200.45
2019-02-28T08:06:06.613Z,100216.31
2019-02-28T08:08:35.426Z,100209.67
2019-02-28T08:11:04.323Z,100211.38
2019-02-28T08:13:34.545Z,100208.66
2019-02-28T08:16:03.612Z,100206.55
2019-02-28T08:18:32.374Z,100205.55
2019-02-28T08:21:01.215Z,100202.41
2019-02-28T08:23:31.282Z,100201.36
2019-02-28T08:26:00.373Z,100198.14
2019-02-28T08:28:35.867Z,100196.58
2019-02-28T08:31:01.118Z,100204.69
2019-02-28T08:33:29.876Z,100209.61
2019-02-28T08:35:58.726Z,100207.73
2019-02-28T08:38:30.073Z,100209.38
2019-02-28T08:40:58.016Z,100199.37
2019-02-28T08:43:27.509Z,100194.80
2019-02-28T08:45:56.466Z,100188.86
2019-02-28T08:48:31.496Z,100184.52
2019-02-28T08:50:56.697Z,100175.33
2019-02-28T08:53:25.570Z,100174.04
2019-02-28T08:55:54.293Z,100175.12
2019-02-28T08:58:23.049Z,100172.95
2019-02-28T09:00:51.787Z,100176.75
2019-02-28T09:03:20.661Z,100178.92
2019-02-28T09:05:49.506Z,100172.69
2019-02-28T09:08:18.311Z,100161.06
2019-02-28T09:10:47.892Z,100161.87
2019-02-28T09:13:16.847Z,100172.97
2019-02-28T09:15:45.758Z,100168.91
2019-02-28T09:18:14.577Z,100174.03
2019-02-28T09:20:45.114Z,100181.34
2019-02-28T09:23:14.005Z,100187.02
2019-02-28T09:25:42.744Z,100184.04
2019-02-28T09:28:13.024Z,100172.37
2019-02-28T09:30:42.164Z,100167.25
2019-02-28T09:33:11.029Z,100165.87
2019-02-28T09:35:45.240Z,100160.20
2019-02-28T09:38:13.331Z,100160.47
2019-02-28T09:40:41.345Z,100161.02
2019-02-28T09:43:10.363Z,100161.81
2019-02-28T09:45:39.919Z,100167.77
2019-02-28T09:48:09.653Z,100161.83
2019-02-28T09:50:38.558Z,100155.86
2019-02-28T09:53:07.419Z,100155.86
2019-02-28T09:55:36.300Z,100156.41
2019-02-28T09:58:05.169Z,100157.47
2019-02-28T10:00:34.078Z,100164.81
2019-02-28T10:03:02.924Z,100174.83
2019-02-28T10:05:31.726Z,100173.20
2019-02-28T10:08:02.851Z,100179.16
2019-02-28T10:10:31.098Z,100184.34
2019-02-28T10:12:59.973Z,100182.17
2019-02-28T10:15:28.814Z,100183.53
2019-02-28T10:18:00.721Z,100190.04
2019-02-28T10:20:28.727Z,100188.15
2019-02-28T10:22:57.701Z,100190.58
2019-02-28T10:25:26.628Z,100193.56
2019-02-28T10:28:01.646Z,100194.63
2019-02-28T10:30:31.604Z,100192.48
2019-02-28T10:32:56.593Z,100191.11
2019-02-28T10:35:25.451Z,100196.25
2019-02-28T10:37:58.533Z,100193.28
2019-02-28T10:40:25.239Z,100196.25
2019-02-28T10:42:54.091Z,100199.77
2019-02-28T10:45:23.120Z,100196.25
2019-02-28T10:47:52.060Z,100191.94
2019-02-28T10:50:22.634Z,100184.61
2019-02-28T10:52:51.565Z,100186.52
2019-02-28T10:55:22.452Z,100190.28
2019-02-28T10:57:51.140Z,100181.36
2019-02-28T11:00:23.870Z,100185.70
2019-02-28T11:02:54.065Z,100179.20
2019-02-28T11:05:28.794Z,100178.38
2019-02-28T11:07:57.537Z,100178.94
2019-02-28T11:10:35.059Z,100184.06
2019-02-28T11:13:01.336Z,100184.89
2019-02-28T11:15:30.293Z,100187.87
2019-02-28T11:17:59.273Z,100185.98
2019-02-28T11:20:28.019Z,100189.21
2019-02-28T11:22:56.803Z,100179.20
2019-02-28T11:25:26.339Z,100175.96
2019-02-28T11:27:55.328Z,100172.41
2019-02-28T11:30:24.871Z,100166.19
2019-02-28T11:32:53.869Z,100162.41
2019-02-28T11:35:23.248Z,100169.72
2019-02-28T11:37:52.882Z,100166.47
2019-02-28T11:40:23.046Z,100164.31
2019-02-28T11:42:52.023Z,100167.81
2019-02-28T11:45:25.326Z,100163.76
2019-02-28T11:47:54.403Z,100162.41
2019-02-28T11:50:23.346Z,100161.58
2019-02-28T11:52:52.220Z,100152.37
2019-02-28T11:55:21.336Z,100146.98
2019-02-28T11:57:50.263Z,100135.34
2019-02-28T12:00:21.728Z,100134.00
2019-02-28T12:02:53.207Z,100135.34
2019-02-28T12:05:21.412Z,100134.25
2019-02-28T12:07:50.369Z,100132.36
2019-02-28T12:10:20.037Z,100128.86
2019-02-28T12:12:49.003Z,100123.70
2019-02-28T12:15:19.069Z,100120.73
2019-02-28T12:17:47.877Z,100126.95
2019-02-28T12:20:16.761Z,100122.59
2019-02-28T12:22:49.229Z,100129.64
2019-02-28T12:25:17.515Z,100126.13
2019-02-28T12:27:46.363Z,100136.14
2019-02-28T12:30:22.039Z,100139.91
2019-02-28T12:32:52.546Z,100130.41
2019-02-28T12:35:21.436Z,100126.34
2019-02-28T12:37:53.818Z,100127.70
2019-02-28T12:40:23.227Z,100129.05
2019-02-28T12:42:52.117Z,100123.63
2019-02-28T12:45:29.645Z,100125.82
2019-02-28T12:47:58.631Z,100118.25
2019-02-28T12:50:29.483Z,100115.25
2019-02-28T12:52:58.330Z,100119.59
2019-02-28T12:55:27.363Z,100120.14
2019-02-28T12:57:57.809Z,100120.70
2019-02-28T13:00:34.880Z,100123.70
2019-02-28T13:03:03.846Z,100125.03
2019-02-28T13:05:32.765Z,100119.89
2019-02-28T13:08:01.690Z,100112.05
2019-02-28T13:10:31.193Z,100114.50
2019-02-28T13:13:06.406Z,100113.39
2019-02-28T13:15:30.785Z,100113.94
2019-02-28T13:17:59.702Z,100115.82
2019-02-28T13:20:32.734Z,100107.70
2019-02-28T13:23:01.099Z,100107.99
2019-02-28T13:25:30.360Z,100096.07
2019-02-28T13:27:59.327Z,100095.79
2019-02-28T13:30:28.241Z,100102.83
2019-02-28T13:32:57.302Z,100097.41
2019-02-28T13:35:28.347Z,100107.41
2019-02-28T13:37:57.196Z,100107.15
2019-02-28T13:40:26.124Z,100101.47
2019-02-28T13:42:55.093Z,100100.11
2019-02-28T13:45:24.885Z,100094.44
2019-02-28T13:47:53.938Z,100088.48
2019-02-28T13:50:25.928Z,100088.48
2019-02-28T13:52:54.863Z,100087.65
2019-02-28T13:55:23.874Z,100092.27
2019-02-28T13:57:52.870Z,100091.18
2019-02-28T14:00:24.004Z,100096.33
2019-02-28T14:02:55.104Z,100095.25
2019-02-28T14:05:24.032Z,100093.34
2019-02-28T14:07:52.938Z,100097.97
2019-02-28T14:10:22.919Z,100094.17
2019-02-28T14:12:53.187Z,100094.19
2019-02-28T14:15:25.240Z,100100.42
2019-02-28T14:17:54.266Z,100092.28
2019-02-28T14:20:24.365Z,100093.66
2019-02-28T14:22:53.678Z,100087.98
2019-02-28T14:25:22.770Z,100089.33
2019-02-28T14:27:51.730Z,100091.75
2019-02-28T14:30:22.820Z,100087.69
2019-02-28T14:32:52.613Z,100083.09
2019-02-28T14:35:22.953Z,100088.52
2019-02-28T14:37:55.861Z,100083.86
2019-02-28T14:40:22.567Z,100073.31
2019-02-28T14:42:51.598Z,100077.92
2019-02-28T14:45:20.952Z,100078.73
2019-02-28T14:47:56.911Z,100075.77
2019-02-28T14:50:22.106Z,100073.86
2019-02-28T14:52:52.650Z,100074.39
2019-02-28T14:55:21.629Z,100074.70
2019-02-28T14:57:50.465Z,100065.77
2019-02-28T15:00:22.410Z,100067.66
2019-02-28T15:02:51.399Z,100066.59
2019-02-28T15:05:21.538Z,100064.14
2019-02-28T15:07:50.711Z,100062.52
2019-02-28T15:10:20.002Z,100065.48
2019-02-28T15:12:48.963Z,100065.49
2019-02-28T15:15:19.334Z,100064.67
2019-02-28T15:17:48.826Z,100057.63
2019-02-28T15:20:17.694Z,100058.98
2019-02-28T15:22:46.872Z,100063.05
2019-02-28T15:25:18.477Z,100021.13
2019-02-28T15:27:47.716Z,100050.05
2019-02-28T15:30:22.151Z,100040.84
2019-02-28T15:32:54.252Z,100039.51
2019-02-28T15:35:22.306Z,100040.30
2019-02-28T15:37:51.219Z,100047.56
2019-02-28T15:40:24.729Z,100040.73
2019-02-28T15:42:52.470Z,100043.95
2019-02-28T15:45:21.831Z,100044.48
2019-02-28T15:47:59.056Z,100038.47
2019-02-28T15:50:27.152Z,100038.16
2019-02-28T15:52:56.325Z,100040.31
2019-02-28T15:55:25.308Z,100037.02
2019-02-28T15:57:54.175Z,100037.27
2019-02-28T16:00:25.233Z,100027.75
2019-02-28T16:02:54.098Z,100028.25
2019-02-28T16:05:23.538Z,100030.35
2019-02-28T16:07:52.495Z,100021.64
2019-02-28T16:10:23.097Z,100025.42
2019-02-28T16:12:52.109Z,100033.50
2019-02-28T16:15:21.206Z,100026.16
2019-02-28T16:17:50.089Z,100025.06
2019-02-28T16:20:18.961Z,100025.03
2019-02-28T16:22:52.093Z,100029.36
2019-02-28T16:25:21.027Z,100024.73
2019-02-28T16:27:49.885Z,100022.51
2019-02-28T16:30:18.852Z,100019.24
2019-02-28T16:32:49.161Z,100025.77
2019-02-28T16:35:18.617Z,100030.09
2019-02-28T16:37:47.538Z,100023.83
2019-02-28T16:40:20.738Z,100023.46
2019-02-28T16:42:48.416Z,100026.34
2019-02-28T16:45:24.773Z,100027.00
2019-02-28T16:47:55.623Z,100025.21
2019-02-28T16:50:24.259Z,100032.44
2019-02-28T16:52:53.350Z,100028.78
2019-02-28T16:55:22.380Z,100033.86
2019-02-28T16:57:51.434Z,100029.98
2019-02-28T17:00:20.415Z,100031.59
2019-02-28T17:02:50.350Z,100030.73
2019-02-28T17:05:19.234Z,100035.33
2019-02-28T17:07:48.262Z,100048.36
2019-02-28T17:10:19.243Z,100040.77
2019-02-28T17:13:11.505Z,100048.37
2019-02-28T17:16:01.481Z,100042.92
2019-02-28T17:18:29.288Z,100039.41
2019-02-28T17:20:58.307Z,100032.66
2019-02-28T17:23:27.345Z,100039.45
2019-02-28T17:25:57.366Z,100035.92
2019-02-28T17:28:46.477Z,100046.50
2019-02-28T17:31:50.487Z,100048.11
2019-02-28T17:34:23.698Z,100043.82
2019-02-28T17:36:51.805Z,100061.15
2019-02-28T17:39:21.199Z,100051.68
2019-02-28T17:41:50.411Z,100054.41
2019-02-28T17:44:49.799Z,100062.86
2019-02-28T17:47:53.006Z,100058.02
2019-02-28T17:50:50.964Z,100055.31
2019-02-28T17:53:45.634Z,100058.11
2019-02-28T17:56:44.640Z,100057.06
2019-02-28T18:00:12.980Z,100058.38
2019-02-28T18:03:19.422Z,100058.57
2019-02-28T18:06:22.628Z,100058.42
2019-02-28T18:09:17.731Z,100059.42
2019-02-28T18:12:17.702Z,100063.15
2019-02-28T18:15:12.106Z,100061.13
2019-02-28T18:18:23.569Z,100066.22
2019-02-28T18:21:37.489Z,100072.29
2019-02-28T18:25:02.086Z,100078.33
2019-02-28T18:27:47.838Z,100083.47
2019-02-28T18:30:59.963Z,100083.47
2019-02-28T18:33:29.465Z,100085.06
2019-02-28T18:35:58.735Z,100086.42
2019-02-28T18:38:29.279Z,100078.83
2019-02-28T18:41:00.108Z,100082.91
2019-02-28T18:43:29.726Z,100078.58
2019-02-28T18:46:00.073Z,100085.69
2019-02-28T18:48:30.136Z,100083.23
2019-02-28T18:51:00.702Z,100084.64
2019-02-28T18:53:30.142Z,100080.01
2019-02-28T18:55:59.433Z,100084.33
2019-02-28T18:58:29.045Z,100083.65
2019-02-28T19:00:58.719Z,100072.61
2019-02-28T19:03:28.770Z,100072.26
2019-02-28T19:05:58.731Z,100071.67
2019-02-28T19:08:28.058Z,100067.03
2019-02-28T19:10:57.510Z,100066.66
2019-02-28T19:13:27.009Z,100067.05
2019-02-28T19:15:56.744Z,100070.42
2019-02-28T19:18:25.982Z,100068.36
2019-02-28T19:20:55.821Z,100072.84
2019-02-28T19:23:26.371Z,100069.41
2019-02-28T19:25:55.421Z,100067.34
2019-02-28T19:28:25.904Z,100064.47
2019-02-28T19:30:55.459Z,100063.81
2019-02-28T19:33:25.067Z,100063.97
2019-02-28T19:35:54.335Z,100061.21
2019-02-28T19:38:24.133Z,100065.80
2019-02-28T19:40:53.903Z,100066.91
2019-02-28T19:43:24.203Z,100069.42
2019-02-28T19:45:55.378Z,100067.31
2019-02-28T19:48:25.437Z,100079.12
2019-02-28T19:50:56.591Z,100077.56
2019-02-28T19:53:26.222Z,100080.72
2019-02-28T19:55:56.799Z,100077.41
2019-02-28T19:58:26.930Z,100080.98
2019-02-28T20:00:57.117Z,100076.08
2019-02-28T20:03:26.814Z,100080.23
2019-02-28T20:05:55.974Z,100081.05
2019-02-28T20:08:26.130Z,100085.57
2019-02-28T20:10:56.011Z,100082.22
2019-02-28T20:13:26.262Z,100081.59
2019-02-28T20:15:56.212Z,100071.20
2019-02-28T20:18:25.828Z,100074.17
2019-02-28T20:20:56.017Z,100075.78
2019-02-28T20:23:25.616Z,100069.52
2019-02-28T20:25:55.266Z,100068.72
2019-02-28T20:28:25.884Z,100066.23
2019-02-28T20:30:55.732Z,100062.70
2019-02-28T20:33:25.779Z,100064.16
2019-02-28T20:35:55.865Z,100062.10
2019-02-28T20:38:26.370Z,100062.16
2019-02-28T20:40:56.862Z,100062.97
2019-02-28T20:43:26.774Z,100060.70
2019-02-28T20:45:56.897Z,100061.44
2019-02-28T20:48:26.302Z,100058.95
2019-02-28T20:50:56.485Z,100053.81
2019-02-28T20:53:26.877Z,100055.48
2019-02-28T20:55:56.798Z,100061.54
2019-02-28T20:58:27.058Z,100061.36
2019-02-28T21:00:57.398Z,100055.45
2019-02-28T21:03:27.138Z,100059.08
2019-02-28T21:05:57.036Z,100059.21
2019-02-28T21:08:28.030Z,100053.30
2019-02-28T21:10:57.546Z,100060.18
2019-02-28T21:13:28.008Z,100056.74
2019-02-28T21:15:57.602Z,100054.33
2019-02-28T21:18:27.925Z,100054.98
2019-02-28T21:20:57.303Z,100048.27
2019-02-28T21:23:26.547Z,100042.38
2019-02-28T21:25:57.374Z,100041.91
2019-02-28T21:28:26.741Z,100042.00
2019-02-28T21:30:56.135Z,100046.18
2019-02-28T21:33:25.289Z,100040.85
2019-02-28T21:35:54.341Z,100043.66
2019-02-28T21:38:23.718Z,100048.64
2019-02-28T21:40:53.261Z,100042.73
2019-02-28T21:43:22.595Z,100047.18
2019-02-28T21:45:51.835Z,100041.81
2019-02-28T21:48:21.413Z,100045.17
2019-02-28T21:50:50.702Z,100045.52
2019-02-28T21:53:19.603Z,100043.12
2019-02-28T21:55:49.075Z,100039.36
2019-02-28T21:58:17.965Z,100042.45
2019-02-28T22:00:46.978Z,100041.97
2019-02-28T22:03:15.914Z,100038.77
2019-02-28T22:05:45.068Z,100035.32
2019-02-28T22:08:14.111Z,100028.88
2019-02-28T22:10:42.893Z,100032.98
2019-02-28T22:13:12.230Z,100034.95
2019-02-28T22:15:41.225Z,100036.89
2019-02-28T22:18:10.076Z,100028.22
2019-02-28T22:20:39.019Z,100018.46
2019-02-28T22:23:07.969Z,100021.23
2019-02-28T22:25:36.809Z,100016.40
2019-02-28T22:28:05.709Z,100018.34
2019-02-28T22:30:56.524Z,100023.28
2019-02-28T22:33:56.459Z,100021.94
2019-02-28T22:36:34.844Z,100015.73
2019-02-28T22:39:03.898Z,100003.81
2019-02-28T22:41:32.813Z,100005.78
2019-02-28T22:44:01.677Z,100010.73
2019-02-28T22:46:30.641Z,100002.63
2019-02-28T22:48:59.517Z,99996.92
2019-02-28T22:51:28.379Z,99990.17
2019-02-28T22:53:57.159Z,99988.02
2019-02-28T22:56:25.977Z,99983.99
2019-02-28T22:58:54.858Z,99982.95
2019-02-28T23:01:23.863Z,99985.72
2019-02-28T23:03:52.684Z,99980.86
2019-02-28T23:06:21.539Z,99975.22
2019-02-28T23:08:50.466Z,99975.23
2019-02-28T23:11:19.383Z,99973.92
2019-02-28T23:13:48.196Z,99968.25
2019-02-28T23:16:17.075Z,99966.94
2019-02-28T23:18:46.030Z,99962.91
2019-02-28T23:21:14.872Z,99965.64
2019-02-28T23:23:43.756Z,99962.97
2019-02-28T23:26:14.268Z,99956.48
2019-02-28T23:29:06.311Z,99949.99
2019-02-28T23:32:08.470Z,99950.59
2019-02-28T23:34:39.892Z,99952.27
2019-02-28T23:37:08.795Z,99949.31
2019-02-28T23:39:37.629Z,99941.75
2019-02-28T23:42:06.485Z,99947.20
2019-02-28T23:44:35.305Z,99935.58
2019-02-28T23:47:04.227Z,99936.98
2019-02-28T23:49:33.076Z,99935.89
2019-02-28T23:52:01.853Z,99940.81
2019-02-28T23:54:30.701Z,99929.19
2019-02-28T23:56:59.737Z,99928.34
2019-02-28T23:59:28.634Z,99925.39
